Time;durP1;ratioP1;P1;durP2;ratioP2;P2;SDS_P1;SDS_P2;PMS_P1;PMS_P2;Temp;Humidity;BMP_temperature;BMP_pressure;BME280_temperature;BME280_humidity;BME280_pressure;Samples;Min_cycle;Max_cycle;Signal;HPM_P1;HPM_P2
2021/10/23 00:00:05;;;;;;;4.18;1.25;;;8.10;99.90;;;;;;5049564;28;20243;-79
2021/10/23 00:02:30;;;;;;;3.33;0.90;;;8.10;99.90;;;;;;5048729;28;20559;-80
2021/10/23 00:04:56;;;;;;;5.07;1.35;;;8.10;99.90;;;;;;5049704;28;20032;-79
2021/10/23 00:07:21;;;;;;;5.45;1.40;;;8.00;99.90;;;;;;5048157;28;20162;-77
2021/10/23 00:09:47;;;;;;;2.00;1.00;;;8.00;99.90;;;;;;5048914;28;20481;-79
2021/10/23 00:12:13;;;;;;;4.45;0.80;;;8.00;99.90;;;;;;5049751;28;20036;-80
2021/10/23 00:14:38;;;;;;;6.10;1.40;;;8.00;99.90;;;;;;5049365;28;20032;-79
2021/10/23 00:17:04;;;;;;;2.50;0.82;;;8.00;99.90;;;;;;5049477;28;20172;-78
2021/10/23 00:19:30;;;;;;;4.43;1.35;;;8.00;99.90;;;;;;5048652;28;20498;-80
2021/10/23 00:21:55;;;;;;;6.45;1.25;;;8.00;99.90;;;;;;5049174;28;20040;-80
2021/10/23 00:24:21;;;;;;;3.90;1.45;;;8.00;99.90;;;;;;5049589;28;20629;-80
2021/10/23 00:26:46;;;;;;;3.70;1.77;;;8.00;99.90;;;;;;5048965;28;20029;-80
2021/10/23 00:29:12;;;;;;;5.60;1.48;;;7.90;99.90;;;;;;5048838;28;20025;-80
2021/10/23 00:31:37;;;;;;;4.90;1.00;;;7.90;99.90;;;;;;5048470;28;20159;-80
2021/10/23 00:34:03;;;;;;;5.43;1.13;;;7.90;99.90;;;;;;5048269;28;20032;-80
2021/10/23 00:36:28;;;;;;;8.07;1.35;;;7.90;99.90;;;;;;5038457;28;20031;-79
2021/10/23 00:38:54;;;;;;;7.25;1.65;;;7.90;99.90;;;;;;5029207;28;20093;-80
2021/10/23 00:41:19;;;;;;;4.25;1.25;;;7.90;99.90;;;;;;5029209;28;20021;-79
2021/10/23 00:43:45;;;;;;;10.85;1.60;;;7.80;99.90;;;;;;5028834;28;20026;-79
2021/10/23 00:46:15;;;;;;;6.18;1.95;;;7.80;99.90;;;;;;5029491;28;20140;-79
2021/10/23 00:48:41;;;;;;;6.75;1.17;;;7.80;99.90;;;;;;5028544;28;20048;-79
2021/10/23 00:51:13;;;;;;;3.75;1.00;;;7.80;99.90;;;;;;5029568;28;20042;-80
2021/10/23 00:53:39;;;;;;;5.50;1.30;;;7.80;99.90;;;;;;5028765;28;20152;-79
2021/10/23 00:56:06;;;;;;;7.13;1.25;;;7.80;99.90;;;;;;5029458;28;20045;-80
2021/10/23 00:58:32;;;;;;;6.55;1.40;;;7.90;99.90;;;;;;5027823;28;20490;-80
2021/10/23 01:00:57;;;;;;;5.93;1.45;;;7.80;99.80;;;;;;5029331;28;20053;-79
2021/10/23 01:03:23;;;;;;;9.00;1.75;;;7.80;99.90;;;;;;5028603;28;20033;-79
2021/10/23 01:05:49;;;;;;;8.95;1.35;;;7.70;99.70;;;;;;5029264;28;20035;-80
2021/10/23 01:08:15;;;;;;;5.43;1.30;;;7.60;99.90;;;;;;5028492;28;20438;-79
2021/10/23 01:10:41;;;;;;;4.97;1.65;;;7.60;99.90;;;;;;5029557;28;20034;-79
2021/10/23 01:13:07;;;;;;;2.55;1.35;;;7.70;99.80;;;;;;5032614;28;20467;-79
2021/10/23 01:15:33;;;;;;;5.55;1.20;;;7.60;99.80;;;;;;5032791;28;20034;-78
2021/10/23 01:18:02;;;;;;;5.97;1.20;;;7.50;99.90;;;;;;5032112;28;20029;-79
2021/10/23 01:20:29;;;;;;;4.80;1.25;;;7.50;99.80;;;;;;5032308;28;20030;-78
2021/10/23 01:22:55;;;;;;;8.10;1.45;;;7.50;99.80;;;;;;5033350;28;20072;-79
2021/10/23 01:25:24;;;;;;;3.80;1.23;;;7.60;99.70;;;;;;5050936;28;20037;-78
2021/10/23 01:27:55;;;;;;;7.65;1.85;;;7.60;99.70;;;;;;5050597;28;20036;-79
2021/10/23 01:30:23;;;;;;;4.63;1.60;;;7.60;99.70;;;;;;5051756;28;20025;-79
2021/10/23 01:32:48;;;;;;;8.63;2.53;;;7.60;99.60;;;;;;5051817;28;20101;-80
2021/10/23 01:35:14;;;;;;;9.75;2.00;;;7.50;99.60;;;;;;5043163;28;20537;-80
2021/10/23 01:37:42;;;;;;;6.82;1.42;;;7.50;99.50;;;;;;5031779;28;20378;-79
2021/10/23 01:40:11;;;;;;;6.68;1.02;;;7.50;99.50;;;;;;5032394;28;20025;-79
2021/10/23 01:42:37;;;;;;;8.77;2.85;;;7.50;99.40;;;;;;5031940;28;20034;-78
2021/10/23 01:45:07;;;;;;;9.02;1.50;;;7.50;99.40;;;;;;5032733;28;20036;-79
2021/10/23 01:47:33;;;;;;;12.90;1.10;;;7.40;99.30;;;;;;5031910;28;20029;-78
2021/10/23 01:49:58;;;;;;;7.35;1.40;;;7.40;99.40;;;;;;5032468;28;20041;-78
2021/10/23 01:52:24;;;;;;;11.73;1.67;;;7.40;99.50;;;;;;5031864;28;20029;-78
2021/10/23 01:54:49;;;;;;;6.68;1.33;;;7.40;99.40;;;;;;5031740;28;20032;-78
2021/10/23 01:57:15;;;;;;;5.65;1.15;;;7.40;99.40;;;;;;5032286;28;20025;-78
2021/10/23 01:59:40;;;;;;;5.15;1.45;;;7.40;99.40;;;;;;5030780;28;20041;-78
2021/10/23 02:02:06;;;;;;;6.38;1.52;;;7.40;99.30;;;;;;5031806;28;20087;-79
2021/10/23 02:04:31;;;;;;;6.68;0.88;;;7.40;99.30;;;;;;5030826;28;20021;-79
2021/10/23 02:06:57;;;;;;;6.97;1.50;;;7.40;99.30;;;;;;5031769;28;20056;-79
2021/10/23 02:09:22;;;;;;;2.90;1.17;;;7.40;99.40;;;;;;5031473;28;20072;-79
2021/10/23 02:11:48;;;;;;;2.70;1.10;;;7.20;99.50;;;;;;5031589;28;20039;-79
2021/10/23 02:14:14;;;;;;;5.00;1.30;;;7.20;99.60;;;;;;5031185;28;20057;-78
2021/10/23 02:16:39;;;;;;;8.88;1.23;;;7.20;99.80;;;;;;5031619;28;20444;-78
2021/10/23 02:19:05;;;;;;;3.50;1.40;;;7.20;99.70;;;;;;5030653;28;20030;-79
2021/10/23 02:21:30;;;;;;;8.88;1.63;;;7.20;99.70;;;;;;5030392;28;20072;-78
2021/10/23 02:23:56;;;;;;;5.28;0.93;;;7.20;99.60;;;;;;5031393;28;20041;-78
2021/10/23 02:26:21;;;;;;;3.53;1.15;;;7.20;99.70;;;;;;5030410;28;20044;-78
2021/10/23 02:28:47;;;;;;;5.95;1.15;;;7.20;99.60;;;;;;5030762;28;20617;-80
2021/10/23 02:31:13;;;;;;;7.75;1.50;;;7.20;99.60;;;;;;5030130;28;20113;-79
2021/10/23 02:33:38;;;;;;;12.00;2.35;;;7.10;99.50;;;;;;5030724;28;20092;-78
2021/10/23 02:36:04;;;;;;;4.72;1.13;;;7.10;99.60;;;;;;5031432;28;20045;-78
2021/10/23 02:38:29;;;;;;;4.35;1.02;;;7.10;99.70;;;;;;5030510;28;20101;-78
2021/10/23 02:40:56;;;;;;;3.97;1.08;;;7.10;99.70;;;;;;5029521;28;20059;-79
2021/10/23 02:43:23;;;;;;;10.40;1.00;;;7.10;99.60;;;;;;5031228;28;20044;-79
2021/10/23 02:45:48;;;;;;;16.90;1.65;;;7.10;99.50;;;;;;5031107;28;20029;-79
2021/10/23 02:48:15;;;;;;;5.82;1.27;;;7.10;99.60;;;;;;5030443;28;20033;-79
2021/10/23 02:50:40;;;;;;;6.97;1.45;;;7.00;99.70;;;;;;5030440;28;20049;-80
2021/10/23 02:53:06;;;;;;;5.85;1.33;;;7.10;99.70;;;;;;5030847;28;20033;-79
2021/10/23 02:55:31;;;;;;;5.10;1.45;;;7.00;99.90;;;;;;5030786;28;20041;-79
2021/10/23 02:57:57;;;;;;;11.38;1.95;;;6.90;99.90;;;;;;5030134;28;20034;-79
2021/10/23 03:00:22;;;;;;;5.80;1.75;;;7.00;99.90;;;;;;5031074;28;20038;-79
2021/10/23 03:02:49;;;;;;;5.80;1.92;;;7.00;99.90;;;;;;5030116;28;20045;-79
2021/10/23 03:05:16;;;;;;;8.82;1.73;;;7.00;99.90;;;;;;5030802;28;20201;-79
2021/10/23 03:07:41;;;;;;;8.13;1.90;;;6.90;99.90;;;;;;5029690;28;20468;-79
2021/10/23 03:10:07;;;;;;;6.63;1.95;;;6.90;99.90;;;;;;5030196;28;20125;-78
2021/10/23 03:12:33;;;;;;;10.43;1.25;;;6.90;99.90;;;;;;5030225;28;20033;-79
2021/10/23 03:14:58;;;;;;;7.70;1.90;;;6.90;99.90;;;;;;5030664;28;20029;-78
2021/10/23 03:17:23;;;;;;;4.43;2.08;;;6.90;99.90;;;;;;5030665;28;20033;-78
2021/10/23 03:19:49;;;;;;;7.78;2.20;;;6.80;99.90;;;;;;5029616;28;20029;-78
2021/10/23 03:22:14;;;;;;;6.07;1.88;;;6.80;99.90;;;;;;5028917;28;20091;-79
2021/10/23 03:24:40;;;;;;;7.72;2.28;;;6.90;99.90;;;;;;5030060;28;20120;-79
2021/10/23 03:27:05;;;;;;;8.68;1.88;;;6.90;99.90;;;;;;5030159;28;20033;-78
2021/10/23 03:29:31;;;;;;;7.90;1.52;;;6.90;99.90;;;;;;5029167;28;20517;-79
2021/10/23 03:31:56;;;;;;;9.02;1.73;;;6.90;99.90;;;;;;5030777;28;20036;-78
2021/10/23 03:34:22;;;;;;;2.63;0.95;;;6.90;99.90;;;;;;5048860;28;20029;-80
2021/10/23 03:36:47;;;;;;;13.65;2.80;;;6.90;99.90;;;;;;5050041;28;20040;-78
2021/10/23 03:39:13;;;;;;;6.97;1.98;;;6.90;99.90;;;;;;5049610;28;20485;-78
2021/10/23 03:41:40;;;;;;;7.13;1.73;;;6.90;99.90;;;;;;5049408;28;20539;-78
2021/10/23 03:44:06;;;;;;;5.80;1.95;;;6.90;99.90;;;;;;5048589;28;20601;-79
2021/10/23 03:46:32;;;;;;;7.50;2.08;;;6.80;99.90;;;;;;5049646;28;20044;-78
2021/10/23 03:48:57;;;;;;;5.18;1.80;;;6.80;99.90;;;;;;5049297;28;20040;-78
2021/10/23 03:51:23;;;;;;;6.00;1.67;;;6.80;99.90;;;;;;5050428;28;20025;-78
2021/10/23 03:53:48;;;;;;;13.80;2.35;;;6.80;99.90;;;;;;5049979;28;20040;-79
2021/10/23 03:56:14;;;;;;;8.77;2.25;;;6.80;99.90;;;;;;5050376;28;20033;-79
2021/10/23 03:58:39;;;;;;;9.30;2.47;;;6.90;99.90;;;;;;5048515;28;20397;-78
2021/10/23 04:01:05;;;;;;;6.32;2.67;;;6.90;99.90;;;;;;5049744;28;20040;-78
2021/10/23 04:03:30;;;;;;;9.60;1.80;;;6.80;99.90;;;;;;5049409;28;20465;-80
2021/10/23 04:05:55;;;;;;;11.02;2.35;;;6.80;99.90;;;;;;5049359;28;20029;-79
2021/10/23 04:08:21;;;;;;;9.55;1.88;;;6.90;99.90;;;;;;5047743;28;20041;-79
2021/10/23 04:10:47;;;;;;;10.23;2.70;;;6.90;99.90;;;;;;5049054;28;20021;-78
2021/10/23 04:13:12;;;;;;;7.22;2.00;;;6.80;99.90;;;;;;5065557;28;20119;-79
2021/10/23 04:15:38;;;;;;;4.90;2.00;;;6.80;99.90;;;;;;5049600;28;20120;-79
2021/10/23 04:18:03;;;;;;;7.25;2.40;;;6.80;99.90;;;;;;5049505;28;20029;-79
2021/10/23 04:20:29;;;;;;;11.00;1.98;;;6.80;99.90;;;;;;5049059;28;20028;-79
2021/10/23 04:22:54;;;;;;;9.00;2.70;;;6.90;99.90;;;;;;5048242;28;20406;-78
2021/10/23 04:25:20;;;;;;;10.73;2.80;;;6.80;99.90;;;;;;5050022;28;20033;-79
2021/10/23 04:27:46;;;;;;;11.07;2.67;;;6.80;99.90;;;;;;5047269;28;20025;-79
2021/10/23 04:30:12;;;;;;;9.18;2.15;;;6.80;99.90;;;;;;5049465;28;20028;-78
2021/10/23 04:32:37;;;;;;;9.73;2.47;;;6.80;99.90;;;;;;5048657;28;20033;-79
2021/10/23 04:35:03;;;;;;;11.85;2.58;;;6.80;99.90;;;;;;5049320;28;20044;-79
2021/10/23 04:37:30;;;;;;;13.38;2.75;;;6.90;99.90;;;;;;5048471;28;20271;-79
2021/10/23 04:39:55;;;;;;;12.32;3.17;;;6.80;99.90;;;;;;5029499;28;20079;-78
2021/10/23 04:42:21;;;;;;;10.23;2.63;;;6.80;99.90;;;;;;5029383;28;20120;-78
2021/10/23 04:44:46;;;;;;;5.93;2.13;;;6.80;99.90;;;;;;5027682;28;20038;-78
2021/10/23 04:47:12;;;;;;;9.95;2.85;;;6.80;99.90;;;;;;5032532;28;20060;-78
2021/10/23 04:49:37;;;;;;;12.95;3.20;;;6.90;99.90;;;;;;5032308;28;20060;-78
2021/10/23 04:52:03;;;;;;;8.25;2.60;;;6.90;99.90;;;;;;5031828;28;20032;-79
2021/10/23 04:54:28;;;;;;;10.55;2.95;;;6.90;99.90;;;;;;5033337;28;20413;-79
2021/10/23 04:56:54;;;;;;;12.63;3.58;;;6.90;99.90;;;;;;5032757;28;20026;-79
2021/10/23 04:59:19;;;;;;;8.30;2.30;;;6.80;99.90;;;;;;5032820;28;20121;-78
2021/10/23 05:01:45;;;;;;;13.55;2.55;;;6.80;99.90;;;;;;5032407;28;20029;-78
2021/10/23 05:04:10;;;;;;;13.50;2.90;;;6.80;99.90;;;;;;5033166;28;20112;-78
2021/10/23 05:06:36;;;;;;;10.00;2.92;;;6.90;99.90;;;;;;5032479;28;20048;-79
2021/10/23 05:09:01;;;;;;;12.23;2.70;;;6.80;99.90;;;;;;5032407;28;20381;-78
2021/10/23 05:11:27;;;;;;;9.75;2.65;;;6.80;99.90;;;;;;5031122;28;20030;-79
2021/10/23 05:13:52;;;;;;;13.18;2.47;;;6.70;99.90;;;;;;5032816;28;20041;-79
2021/10/23 05:16:18;;;;;;;13.07;2.80;;;6.70;99.90;;;;;;5032655;28;20128;-79
2021/10/23 05:18:48;;;;;;;11.32;2.50;;;6.70;99.90;;;;;;5031985;28;20033;-79
2021/10/23 05:21:14;;;;;;;15.80;3.22;;;6.80;99.90;;;;;;5032454;28;20056;-79
2021/10/23 05:23:39;;;;;;;7.68;2.70;;;6.80;99.90;;;;;;5031197;28;20068;-78
2021/10/23 05:26:05;;;;;;;12.25;3.10;;;6.80;99.90;;;;;;5032862;28;20025;-79
2021/10/23 05:28:30;;;;;;;7.57;2.42;;;6.80;99.90;;;;;;5031461;28;20037;-78
2021/10/23 05:30:56;;;;;;;11.05;2.90;;;6.80;99.90;;;;;;5032031;28;20018;-78
2021/10/23 05:33:21;;;;;;;9.18;3.28;;;6.80;99.90;;;;;;5032402;28;20033;-79
2021/10/23 05:35:47;;;;;;;11.48;3.67;;;6.90;99.90;;;;;;5031625;28;20083;-81
2021/10/23 05:38:12;;;;;;;11.02;3.47;;;6.90;99.90;;;;;;5031763;28;20397;-77
2021/10/23 05:40:38;;;;;;;14.15;4.00;;;6.80;99.90;;;;;;5032805;28;20038;-78
2021/10/23 05:43:03;;;;;;;12.85;4.30;;;6.90;99.90;;;;;;5050243;28;20579;-79
2021/10/23 05:45:29;;;;;;;15.30;7.13;;;6.80;99.90;;;;;;5051856;28;20028;-79
2021/10/23 05:47:54;;;;;;;24.83;10.48;;;6.80;99.90;;;;;;5051478;28;20025;-79
2021/10/23 05:50:20;;;;;;;31.00;13.65;;;6.80;99.90;;;;;;5051856;28;20390;-79
2021/10/23 05:52:45;;;;;;;22.83;13.32;;;6.90;99.90;;;;;;5051327;28;20106;-78
2021/10/23 05:55:11;;;;;;;24.92;12.20;;;6.90;99.90;;;;;;5050602;28;20148;-79
2021/10/23 05:57:37;;;;;;;31.45;13.77;;;6.90;99.90;;;;;;5050713;28;20033;-79
2021/10/23 06:00:06;;;;;;;25.95;12.80;;;7.00;99.90;;;;;;5051517;28;20029;-80
2021/10/23 06:02:32;;;;;;;23.55;10.25;;;7.00;99.90;;;;;;5051002;28;20799;-79
2021/10/23 06:05:02;;;;;;;15.63;9.43;;;7.00;99.90;;;;;;5051814;28;20033;-79
2021/10/23 06:07:31;;;;;;;13.30;8.57;;;7.00;99.90;;;;;;5051809;28;20063;-79
2021/10/23 06:09:59;;;;;;;18.15;7.85;;;7.00;99.80;;;;;;5051322;28;20424;-79
2021/10/23 06:12:25;;;;;;;18.30;6.88;;;7.00;99.80;;;;;;5051223;28;20468;-79
2021/10/23 06:14:51;;;;;;;18.10;6.93;;;7.10;99.70;;;;;;5051532;28;20044;-79
2021/10/23 06:17:17;;;;;;;14.77;7.93;;;7.10;99.80;;;;;;5051408;28;20033;-79
2021/10/23 06:19:43;;;;;;;11.25;6.30;;;7.00;99.80;;;;;;5050559;28;20486;-80
2021/10/23 06:22:08;;;;;;;13.38;6.00;;;7.10;99.70;;;;;;5051295;28;20037;-79
2021/10/23 06:24:35;;;;;;;12.90;5.97;;;7.10;99.60;;;;;;5051264;28;20031;-79
2021/10/23 06:27:01;;;;;;;14.10;6.40;;;7.10;99.70;;;;;;5050772;28;20452;-79
2021/10/23 06:29:27;;;;;;;15.65;6.32;;;7.10;99.70;;;;;;5049362;28;20037;-79
2021/10/23 06:31:52;;;;;;;13.55;6.85;;;7.10;99.70;;;;;;5050592;28;20033;-80
2021/10/23 06:34:18;;;;;;;19.52;9.10;;;7.10;99.50;;;;;;5051603;28;20112;-79
2021/10/23 06:36:43;;;;;;;11.20;7.20;;;7.10;99.60;;;;;;5050900;28;20035;-78
2021/10/23 06:39:09;;;;;;;19.17;7.78;;;7.10;99.70;;;;;;5065971;28;20486;-79
2021/10/23 06:41:37;;;;;;;17.95;7.47;;;7.00;99.70;;;;;;5038128;28;20064;-79
2021/10/23 06:44:06;;;;;;;15.23;6.65;;;7.10;99.60;;;;;;5030911;28;20478;-79
2021/10/23 06:46:31;;;;;;;13.38;5.78;;;7.10;99.70;;;;;;5030881;28;20034;-79
2021/10/23 06:48:57;;;;;;;13.90;6.18;;;7.10;99.50;;;;;;5028883;28;20675;-78
2021/10/23 06:51:22;;;;;;;16.95;5.65;;;7.10;99.60;;;;;;5030648;28;20034;-79
2021/10/23 06:53:48;;;;;;;8.68;4.82;;;7.10;99.60;;;;;;5030710;28;20108;-79
2021/10/23 06:56:14;;;;;;;9.15;4.72;;;7.10;99.70;;;;;;5030956;28;20033;-79
2021/10/23 06:58:39;;;;;;;10.00;4.22;;;7.10;99.70;;;;;;5029771;28;20030;-79
2021/10/23 07:01:05;;;;;;;11.35;4.70;;;7.10;99.70;;;;;;5030302;28;20026;-79
2021/10/23 07:03:31;;;;;;;9.43;3.50;;;7.20;99.70;;;;;;5030738;28;20509;-79
2021/10/23 07:05:57;;;;;;;7.57;2.58;;;7.20;99.60;;;;;;5030484;28;20029;-80
2021/10/23 07:08:22;;;;;;;15.02;3.10;;;7.20;99.70;;;;;;5029398;28;20033;-79
2021/10/23 07:10:48;;;;;;;10.15;3.45;;;7.30;99.60;;;;;;5030182;28;20221;-80
2021/10/23 07:13:14;;;;;;;16.70;2.95;;;7.30;99.50;;;;;;5030267;28;20069;-80
2021/10/23 07:15:39;;;;;;;8.77;2.47;;;7.30;99.50;;;;;;5030522;28;20052;-80
2021/10/23 07:18:05;;;;;;;6.30;2.50;;;7.30;99.50;;;;;;5029845;28;20490;-81
2021/10/23 07:20:32;;;;;;;8.27;3.00;;;7.40;99.40;;;;;;5030161;28;20030;-79
2021/10/23 07:22:58;;;;;;;9.52;2.65;;;7.40;99.40;;;;;;5030143;28;20037;-78
2021/10/23 07:25:26;;;;;;;13.02;2.22;;;7.40;99.40;;;;;;5030260;28;20057;-79
2021/10/23 07:27:51;;;;;;;9.63;1.88;;;7.40;99.40;;;;;;5027838;28;20516;-79
2021/10/23 07:30:17;;;;;;;8.23;2.13;;;7.50;99.40;;;;;;5030352;28;20064;-78
2021/10/23 07:32:43;;;;;;;9.38;2.00;;;7.50;99.30;;;;;;5029269;28;20060;-78
2021/10/23 07:35:09;;;;;;;9.15;2.08;;;7.50;99.30;;;;;;5030313;28;20613;-79
2021/10/23 07:37:35;;;;;;;9.13;1.77;;;7.50;99.30;;;;;;5036426;28;20028;-79
2021/10/23 07:40:02;;;;;;;7.55;3.08;;;7.60;99.30;;;;;;5049448;28;20551;-78
2021/10/23 07:42:28;;;;;;;6.60;2.03;;;7.60;99.20;;;;;;5049839;28;20033;-79
2021/10/23 07:44:54;;;;;;;15.80;3.20;;;7.60;99.10;;;;;;5049614;28;20035;-79
2021/10/23 07:47:21;;;;;;;8.65;2.20;;;7.80;99.30;;;;;;5050017;28;20025;-79
2021/10/23 07:49:46;;;;;;;10.50;2.28;;;7.80;99.00;;;;;;5032419;28;20018;-79
2021/10/23 07:52:13;;;;;;;7.43;2.28;;;7.80;99.10;;;;;;5009923;28;20080;-80
2021/10/23 07:54:38;;;;;;;4.70;2.33;;;7.90;98.90;;;;;;5010051;28;20391;-79
2021/10/23 07:57:04;;;;;;;4.97;2.15;;;8.00;98.80;;;;;;5010519;28;20034;-79
2021/10/23 07:59:31;;;;;;;6.50;2.20;;;8.00;98.80;;;;;;5009379;28;20554;-79
2021/10/23 08:01:58;;;;;;;8.93;2.25;;;8.10;98.60;;;;;;5009432;28;20069;-79
2021/10/23 08:04:23;;;;;;;8.25;2.17;;;8.10;98.60;;;;;;5010727;28;20495;-80
2021/10/23 08:06:49;;;;;;;12.23;2.25;;;8.20;98.40;;;;;;5009826;28;20121;-79
2021/10/23 08:09:14;;;;;;;9.70;2.03;;;8.20;98.60;;;;;;5009570;28;20037;-79
2021/10/23 08:11:44;;;;;;;7.65;2.63;;;8.30;98.60;;;;;;5009763;28;20037;-80
2021/10/23 08:14:10;;;;;;;7.82;2.15;;;8.30;98.30;;;;;;5010203;28;20080;-79
2021/10/23 08:16:36;;;;;;;11.30;2.15;;;8.40;98.30;;;;;;5009427;28;20616;-79
2021/10/23 08:19:02;;;;;;;11.52;2.08;;;8.40;98.10;;;;;;5009633;28;20026;-79
2021/10/23 08:21:28;;;;;;;5.65;1.95;;;8.40;98.30;;;;;;5010350;28;20042;-81
2021/10/23 08:23:53;;;;;;;11.23;2.50;;;8.40;98.20;;;;;;5009657;28;20056;-81
2021/10/23 08:26:19;;;;;;;5.93;2.22;;;8.50;98.10;;;;;;5010099;28;20034;-79
2021/10/23 08:28:44;;;;;;;8.02;2.22;;;8.50;98.00;;;;;;5008622;28;20467;-80
2021/10/23 08:31:10;;;;;;;6.65;2.30;;;8.60;97.90;;;;;;5009985;28;20459;-79
2021/10/23 08:33:36;;;;;;;10.75;2.97;;;8.70;98.00;;;;;;5008715;28;20037;-80
2021/10/23 08:36:01;;;;;;;8.80;2.40;;;8.70;97.50;;;;;;5009893;28;20113;-80
2021/10/23 08:38:27;;;;;;;11.85;2.58;;;8.80;97.20;;;;;;5009240;28;20030;-80
2021/10/23 08:40:53;;;;;;;6.50;2.38;;;8.90;97.30;;;;;;5009419;28;20026;-79
2021/10/23 08:43:20;;;;;;;9.50;2.45;;;8.90;97.30;;;;;;5025007;28;20129;-81
2021/10/23 08:45:47;;;;;;;8.23;2.05;;;9.00;96.90;;;;;;5035206;28;20390;-81
2021/10/23 08:48:15;;;;;;;8.05;2.28;;;9.10;96.90;;;;;;5028829;28;20053;-80
2021/10/23 08:50:41;;;;;;;4.53;1.60;;;9.10;96.60;;;;;;5028683;28;20112;-80
2021/10/23 08:53:07;;;;;;;8.73;3.70;;;9.20;96.80;;;;;;5029065;28;20091;-79
2021/10/23 08:55:33;;;;;;;7.53;2.03;;;9.30;96.50;;;;;;5029206;28;20029;-80
2021/10/23 08:57:59;;;;;;;10.35;2.38;;;9.40;96.30;;;;;;5028311;28;20038;-80
2021/10/23 09:00:24;;;;;;;8.73;2.40;;;9.50;96.40;;;;;;5029470;28;20360;-81
2021/10/23 09:02:50;;;;;;;10.93;2.58;;;9.60;96.50;;;;;;5028391;28;20033;-80
2021/10/23 09:05:15;;;;;;;7.25;2.75;;;9.60;95.90;;;;;;5029459;28;20036;-80
2021/10/23 09:07:46;;;;;;;5.45;2.38;;;9.60;96.00;;;;;;5028451;28;20034;-80
2021/10/23 09:10:12;;;;;;;9.52;2.33;;;9.70;96.00;;;;;;5028875;28;20597;-79
2021/10/23 09:12:39;;;;;;;8.48;1.90;;;9.80;95.90;;;;;;5028568;28;20406;-79
2021/10/23 09:15:17;;;;;;;4.88;1.95;;;9.90;96.00;;;;;;5029308;28;20022;-80
2021/10/23 09:17:50;;;;;;;10.82;3.10;;;10.00;95.50;;;;;;5028248;28;20025;-79
2021/10/23 09:20:17;;;;;;;11.13;2.03;;;10.00;95.50;;;;;;5029400;28;20029;-80
2021/10/23 09:22:45;;;;;;;7.75;1.90;;;10.10;95.20;;;;;;5028553;28;20109;-81
2021/10/23 09:25:15;;;;;;;5.57;1.92;;;10.20;95.10;;;;;;5027617;28;20033;-80
2021/10/23 09:27:51;;;;;;;12.05;2.22;;;10.20;94.90;;;;;;5027983;28;20486;-79
2021/10/23 09:30:19;;;;;;;7.05;1.65;;;10.30;94.60;;;;;;5027476;28;20080;-79
2021/10/23 09:32:53;;;;;;;6.20;2.10;;;10.30;94.80;;;;;;5030396;28;20461;-81
2021/10/23 09:35:21;;;;;;;4.90;1.85;;;10.40;94.80;;;;;;5032371;28;20112;-80
2021/10/23 09:37:47;;;;;;;8.00;1.70;;;10.50;94.60;;;;;;5031638;28;20109;-81
2021/10/23 09:40:16;;;;;;;10.82;2.42;;;10.60;94.50;;;;;;5032818;28;20147;-80
2021/10/23 09:42:42;;;;;;;5.70;1.48;;;10.70;94.40;;;;;;5042685;28;20115;-80
2021/10/23 09:45:07;;;;;;;14.55;2.53;;;10.70;94.00;;;;;;5052320;28;20113;-80
2021/10/23 09:47:44;;;;;;;10.25;2.08;;;10.70;94.20;;;;;;5051914;28;20025;-81
2021/10/23 09:50:19;;;;;;;7.93;1.92;;;10.70;94.10;;;;;;5052259;28;20056;-79
2021/10/23 09:53:09;;;;;;;5.38;1.33;;;10.80;94.00;;;;;;5050334;28;20064;-80
2021/10/23 09:55:53;;;;;;;3.17;1.25;;;10.90;93.70;;;;;;5052046;28;20470;-79
2021/10/23 09:58:21;;;;;;;6.60;1.58;;;10.90;93.70;;;;;;5051506;28;20127;-80
2021/10/23 10:00:48;;;;;;;6.78;2.42;;;10.90;93.60;;;;;;5050715;28;20039;-79
2021/10/23 10:03:14;;;;;;;8.68;1.70;;;11.00;94.00;;;;;;5051277;28;20028;-81
2021/10/23 10:05:40;;;;;;;8.32;2.05;;;11.20;93.60;;;;;;5051978;28;20091;-80
2021/10/23 10:08:10;;;;;;;7.22;2.13;;;11.30;93.40;;;;;;5049903;28;20382;-80
2021/10/23 10:10:44;;;;;;;9.27;1.35;;;11.40;93.30;;;;;;5051690;28;20021;-80
2021/10/23 10:13:12;;;;;;;5.80;1.52;;;11.70;93.30;;;;;;5051747;28;20041;-81
2021/10/23 10:15:45;;;;;;;8.77;1.50;;;11.70;92.80;;;;;;5050448;28;20067;-80
2021/10/23 10:18:15;;;;;;;6.25;1.58;;;11.70;92.40;;;;;;5050967;28;20025;-80
2021/10/23 10:20:44;;;;;;;9.10;1.88;;;11.70;92.40;;;;;;5050986;28;20029;-81
2021/10/23 10:23:10;;;;;;;7.75;1.75;;;11.80;92.70;;;;;;5051612;28;20033;-80
2021/10/23 10:25:38;;;;;;;4.88;1.50;;;11.80;92.20;;;;;;5051106;28;20584;-80
2021/10/23 10:28:11;;;;;;;5.72;1.80;;;11.80;92.40;;;;;;5049217;28;20426;-81
2021/10/23 10:30:39;;;;;;;6.22;1.40;;;11.80;92.60;;;;;;5051585;28;20025;-81
2021/10/23 10:33:27;;;;;;;4.82;1.60;;;11.70;92.10;;;;;;5050775;28;20029;-80
2021/10/23 10:39:03;;;;;;;5.13;1.30;;;11.90;92.20;;;;;;5033246;28;20537;-80
2021/10/23 10:44:16;;;;;;;8.85;1.75;;;12.00;92.20;;;;;;5030750;28;20543;-80
2021/10/23 10:47:05;;;;;;;7.22;2.00;;;12.30;91.70;;;;;;5031194;28;20033;-82
2021/10/23 10:49:43;;;;;;;11.70;1.73;;;12.40;91.30;;;;;;5028938;28;20138;-80
2021/10/23 10:52:40;;;;;;;7.72;1.38;;;12.60;91.50;;;;;;5030868;28;20029;-81
2021/10/23 10:55:17;;;;;;;6.18;1.50;;;12.80;90.00;;;;;;5030859;28;20025;-80
2021/10/23 10:58:16;;;;;;;6.82;2.05;;;12.80;90.70;;;;;;5030389;28;20103;-80
2021/10/23 11:00:52;;;;;;;8.25;2.00;;;12.80;90.10;;;;;;5028747;28;20037;-81
2021/10/23 11:03:37;;;;;;;3.22;1.00;;;12.70;90.30;;;;;;5031278;28;20079;-80
2021/10/23 11:06:27;;;;;;;3.72;1.27;;;12.70;90.90;;;;;;5030359;28;20029;-81
2021/10/23 11:09:10;;;;;;;9.45;2.60;;;12.60;90.80;;;;;;5029919;28;20036;-81
2021/10/23 11:11:45;;;;;;;6.65;1.30;;;12.60;91.20;;;;;;5031040;28;20423;-81
2021/10/23 11:14:35;;;;;;;5.95;1.58;;;12.60;90.80;;;;;;5031319;28;20033;-81
2021/10/23 11:17:01;;;;;;;7.18;1.92;;;12.50;91.30;;;;;;5030693;28;20458;-81
2021/10/23 11:19:36;;;;;;;20.98;2.03;;;12.60;91.50;;;;;;5028698;28;20045;-81
2021/10/23 11:22:16;;;;;;;7.20;1.85;;;12.80;91.50;;;;;;5029974;28;20095;-81
2021/10/23 11:24:51;;;;;;;8.02;2.13;;;13.20;90.90;;;;;;5030930;28;20132;-80
2021/10/23 11:27:32;;;;;;;9.45;1.20;;;13.40;90.50;;;;;;5030598;28;20053;-80
2021/10/23 11:30:09;;;;;;;9.05;1.90;;;13.50;90.00;;;;;;5028450;28;20083;-81
2021/10/23 11:32:47;;;;;;;5.45;1.58;;;13.40;90.40;;;;;;5029958;28;20033;-80
2021/10/23 11:35:13;;;;;;;7.53;1.45;;;13.40;90.40;;;;;;5028767;28;20048;-79
2021/10/23 11:37:40;;;;;;;4.93;1.42;;;13.30;90.20;;;;;;5030050;28;20053;-79
2021/10/23 11:40:11;;;;;;;8.57;1.63;;;13.20;90.30;;;;;;5030076;28;20367;-79
2021/10/23 11:42:46;;;;;;;4.13;1.50;;;13.00;90.50;;;;;;5030573;28;20025;-79
2021/10/23 11:45:23;;;;;;;6.93;1.98;;;12.90;91.00;;;;;;5030775;28;20030;-79
2021/10/23 11:47:51;;;;;;;6.68;1.30;;;12.80;91.00;;;;;;5047298;28;20078;-80
2021/10/23 11:50:38;;;;;;;3.47;1.45;;;12.70;91.20;;;;;;5047737;28;20029;-80
2021/10/23 11:53:11;;;;;;;3.22;1.77;;;12.60;91.00;;;;;;5048338;28;20127;-80
2021/10/23 11:55:39;;;;;;;5.57;1.48;;;12.60;91.40;;;;;;5048963;28;20037;-80
2021/10/23 11:58:10;;;;;;;6.53;1.10;;;12.60;91.00;;;;;;5049046;28;20473;-79
2021/10/23 12:00:41;;;;;;;4.65;1.42;;;12.50;91.10;;;;;;5049977;28;20413;-80
2021/10/23 12:03:09;;;;;;;7.63;1.73;;;12.50;91.30;;;;;;5049357;28;20036;-80
2021/10/23 12:05:41;;;;;;;5.32;1.58;;;12.50;91.80;;;;;;5049587;28;20021;-81
2021/10/23 12:08:28;;;;;;;6.05;1.40;;;12.80;91.40;;;;;;5047465;28;20120;-80
2021/10/23 12:11:04;;;;;;;5.35;1.52;;;13.10;90.70;;;;;;5049153;28;20444;-79
2021/10/23 12:13:48;;;;;;;4.03;1.50;;;13.30;90.00;;;;;;5049142;28;20063;-80
2021/10/23 12:16:15;;;;;;;3.78;1.38;;;13.50;90.80;;;;;;5049450;28;20039;-79
2021/10/23 12:18:42;;;;;;;4.13;1.10;;;13.70;89.60;;;;;;5062935;28;20025;-80
2021/10/23 12:21:19;;;;;;;7.75;1.38;;;13.80;88.80;;;;;;5048805;28;20033;-79
2021/10/23 12:23:53;;;;;;;3.92;1.30;;;13.80;88.00;;;;;;5049177;28;20049;-79
2021/10/23 12:26:30;;;;;;;6.03;2.58;;;13.60;89.10;;;;;;5048045;28;20458;-79
2021/10/23 12:29:07;;;;;;;7.88;1.40;;;13.50;89.10;;;;;;5048162;28;20059;-78
2021/10/23 12:31:55;;;;;;;3.70;1.25;;;13.40;88.30;;;;;;5048765;28;20032;-78
2021/10/23 12:34:20;;;;;;;4.63;1.30;;;13.20;89.60;;;;;;5049540;28;20037;-81
2021/10/23 12:36:57;;;;;;;7.47;1.05;;;13.00;89.80;;;;;;5032508;28;20036;-81
2021/10/23 12:39:28;;;;;;;3.55;1.15;;;12.90;90.00;;;;;;5027683;28;20120;-81
2021/10/23 12:41:54;;;;;;;3.28;1.75;;;12.80;90.40;;;;;;5028681;28;20038;-80
2021/10/23 12:44:24;;;;;;;3.97;1.08;;;12.70;90.70;;;;;;5029226;28;20022;-80
2021/10/23 12:46:52;;;;;;;7.25;2.30;;;12.50;90.30;;;;;;5029246;28;20017;-81
2021/10/23 12:49:18;;;;;;;3.30;1.65;;;12.40;90.50;;;;;;5028906;28;20166;-80
2021/10/23 12:51:43;;;;;;;5.72;1.20;;;12.30;90.80;;;;;;5028608;28;20033;-79
2021/10/23 12:54:13;;;;;;;4.03;1.05;;;12.30;91.10;;;;;;5029475;28;20390;-79
2021/10/23 12:56:39;;;;;;;5.18;1.38;;;12.30;91.50;;;;;;5027863;28;20112;-79
2021/10/23 12:59:04;;;;;;;8.13;1.40;;;12.20;91.10;;;;;;5026865;28;20439;-79